createdAt,value
2023-02-06T00:01:47.723Z,33.87
2023-02-06T00:07:09.434Z,34.07
2023-02-06T00:12:31.122Z,35.87
2023-02-06T00:17:52.789Z,37.50
2023-02-06T00:23:14.581Z,35.70
2023-02-06T00:28:36.293Z,38.50
2023-02-06T00:33:57.995Z,36.50
2023-02-06T00:39:19.751Z,41.20
2023-02-06T00:44:41.451Z,39.17
2023-02-06T00:50:04.429Z,39.57
2023-02-06T00:55:26.260Z,40.63
2023-02-06T01:00:47.932Z,41.70
2023-02-06T01:06:09.782Z,41.63
2023-02-06T01:11:31.531Z,41.37
2023-02-06T01:16:53.291Z,42.63
2023-02-06T01:22:14.967Z,45.63
2023-02-06T01:27:37.967Z,41.67
2023-02-06T01:32:59.694Z,42.07
2023-02-06T01:38:21.385Z,47.17
2023-02-06T01:43:46.293Z,44.00
2023-02-06T01:49:11.946Z,42.40
2023-02-06T01:54:34.148Z,44.67
2023-02-06T02:00:01.333Z,44.77
2023-02-06T02:05:23.329Z,45.13
2023-02-06T02:10:45.614Z,47.13
2023-02-06T02:16:19.647Z,45.53
2023-02-06T02:22:06.435Z,50.00
2023-02-06T02:27:34.229Z,44.93
2023-02-06T02:33:05.022Z,51.43
2023-02-06T02:38:53.719Z,44.83
2023-02-06T02:44:26.205Z,47.83
2023-02-06T02:49:48.933Z,46.20
2023-02-06T02:55:21.417Z,46.77
2023-02-06T03:00:51.102Z,43.87
2023-02-06T03:06:31.011Z,44.33
2023-02-06T03:12:11.673Z,43.07
2023-02-06T03:17:39.232Z,40.80
2023-02-06T03:23:03.886Z,43.77
2023-02-06T03:28:31.437Z,43.97
2023-02-06T03:34:03.860Z,45.57
2023-02-06T03:39:26.250Z,47.73
2023-02-06T03:44:54.682Z,43.17
2023-02-06T03:50:17.414Z,42.23
2023-02-06T03:55:41.068Z,42.83
2023-02-06T04:01:05.462Z,45.67
2023-02-06T04:06:27.358Z,40.33
2023-02-06T04:11:49.234Z,41.73
2023-02-06T04:17:11.644Z,40.33
2023-02-06T04:22:33.409Z,38.53
2023-02-06T04:27:55.338Z,37.90
2023-02-06T04:33:17.044Z,41.10
2023-02-06T04:38:38.730Z,42.80
2023-02-06T04:44:00.416Z,44.27
2023-02-06T04:49:22.262Z,42.33
2023-02-06T04:54:43.954Z,43.63
2023-02-06T05:00:06.713Z,40.03
2023-02-06T05:05:28.519Z,36.63
2023-02-06T05:10:52.102Z,35.50
2023-02-06T05:16:16.077Z,40.93
2023-02-06T05:21:37.926Z,40.30
2023-02-06T05:26:59.638Z,37.47
2023-02-06T05:32:21.365Z,35.93
2023-02-06T05:37:43.251Z,39.93
2023-02-06T05:43:05.531Z,36.80
2023-02-06T05:48:28.988Z,42.50
2023-02-06T05:53:50.656Z,34.03
2023-02-06T05:59:12.579Z,35.03
2023-02-06T06:04:34.451Z,35.13
2023-02-06T06:09:48.193Z,35.77
2023-02-06T06:15:10.193Z,35.60
2023-02-06T06:20:31.918Z,34.47
2023-02-06T06:25:53.609Z,34.40
2023-02-06T06:31:15.611Z,35.37
2023-02-06T06:36:37.527Z,31.57
2023-02-06T06:41:59.209Z,30.73
2023-02-06T06:47:20.878Z,29.07
2023-02-06T06:52:45.329Z,33.10
2023-02-06T06:58:07.050Z,31.83
2023-02-06T07:03:35.581Z,28.63
2023-02-06T07:08:57.295Z,29.00
2023-02-06T07:14:19.167Z,31.83
2023-02-06T07:19:40.941Z,31.43
2023-02-06T07:25:02.700Z,27.37
2023-02-06T07:30:24.674Z,28.17
2023-02-06T07:35:49.010Z,31.63
2023-02-06T07:41:12.684Z,27.67
2023-02-06T07:46:34.629Z,28.97
2023-02-06T07:51:56.347Z,23.77
2023-02-06T07:57:18.916Z,30.40
2023-02-06T08:02:40.883Z,23.93
2023-02-06T08:08:02.640Z,24.07
2023-02-06T08:13:24.353Z,21.10
2023-02-06T08:18:46.934Z,21.77
2023-02-06T08:24:11.363Z,19.50
2023-02-06T08:29:40.307Z,23.00
2023-02-06T08:35:02.158Z,22.50
2023-02-06T08:40:23.938Z,19.80
2023-02-06T08:45:51.567Z,20.40
2023-02-06T08:51:14.413Z,13.43
2023-02-06T08:56:37.645Z,15.90
2023-02-06T09:01:59.343Z,17.27
2023-02-06T09:07:21.753Z,14.73
2023-02-06T09:12:43.412Z,15.00
2023-02-06T09:18:05.108Z,18.13
2023-02-06T09:23:26.821Z,21.40
2023-02-06T09:28:52.877Z,16.47
2023-02-06T09:34:14.707Z,11.63
2023-02-06T09:39:36.412Z,16.17
2023-02-06T09:45:18.167Z,15.00
2023-02-06T09:51:10.650Z,14.30
2023-02-06T09:57:05.022Z,16.20
2023-02-06T10:02:51.470Z,16.00
2023-02-06T10:08:25.343Z,9.97
2023-02-06T10:13:55.232Z,12.40
2023-02-06T10:19:23.272Z,10.63
2023-02-06T10:24:57.397Z,13.00
2023-02-06T10:30:25.240Z,11.23
2023-02-06T10:36:07.204Z,8.53
2023-02-06T10:41:43.452Z,14.63
2023-02-06T10:47:18.047Z,7.27
2023-02-06T10:52:40.078Z,7.63
2023-02-06T10:58:16.990Z,6.93
2023-02-06T11:03:47.308Z,9.17
2023-02-06T11:09:10.150Z,7.80
2023-02-06T11:14:38.259Z,6.47
2023-02-06T11:20:14.710Z,6.47
2023-02-06T11:25:36.847Z,6.13
2023-02-06T11:31:01.746Z,7.93
2023-02-06T11:36:38.385Z,6.53
2023-02-06T11:42:03.512Z,8.23
2023-02-06T11:47:35.050Z,6.47
2023-02-06T11:53:10.512Z,6.93
2023-02-06T11:58:32.968Z,8.23
2023-02-06T12:03:59.326Z,11.27
2023-02-06T12:09:21.076Z,7.50
2023-02-06T12:14:51.658Z,6.10
2023-02-06T12:20:20.509Z,10.07
2023-02-06T12:25:45.859Z,11.57
2023-02-06T12:31:13.917Z,9.43
2023-02-06T12:36:50.825Z,9.60
2023-02-06T12:42:33.925Z,16.20
2023-02-06T12:48:12.222Z,11.43
2023-02-06T12:53:39.870Z,9.53
2023-02-06T12:59:10.565Z,8.67
2023-02-06T13:04:35.581Z,11.53
2023-02-06T13:10:02.656Z,9.23
2023-02-06T13:15:27.399Z,7.13
2023-02-06T13:21:13.823Z,10.27
2023-02-06T13:26:55.307Z,9.10
2023-02-06T13:32:17.041Z,6.70
2023-02-06T13:37:44.353Z,8.53
2023-02-06T13:43:26.364Z,8.00
2023-02-06T13:49:26.930Z,4.03
2023-02-06T13:55:17.848Z,6.27
2023-02-06T14:00:43.373Z,5.10
2023-02-06T14:06:07.811Z,8.10
2023-02-06T14:11:35.529Z,4.33
2023-02-06T14:17:18.819Z,5.80
2023-02-06T14:23:12.956Z,6.23
2023-02-06T14:28:56.152Z,6.70
2023-02-06T14:35:19.552Z,3.23
2023-02-06T14:40:43.135Z,5.27
2023-02-06T14:46:10.305Z,4.67
2023-02-06T14:51:36.649Z,6.67
2023-02-06T14:57:01.628Z,6.13
2023-02-06T15:02:35.321Z,5.43
2023-02-06T15:08:02.293Z,8.90
2023-02-06T15:13:34.560Z,8.30
2023-02-06T15:19:16.811Z,8.43
2023-02-06T15:24:58.972Z,7.80
2023-02-06T15:30:25.105Z,10.23
2023-02-06T15:35:53.117Z,6.83
2023-02-06T15:41:15.209Z,7.80
2023-02-06T15:46:38.058Z,6.93
2023-02-06T15:52:00.130Z,4.40
2023-02-06T15:57:32.899Z,5.70
2023-02-06T16:02:59.132Z,4.80
2023-02-06T16:08:34.830Z,5.73
2023-02-06T16:13:57.506Z,6.10
2023-02-06T16:19:38.109Z,5.77
2023-02-06T16:25:32.698Z,5.43
2023-02-06T16:31:04.449Z,7.90
2023-02-06T16:36:26.214Z,8.77
2023-02-06T16:41:53.082Z,7.37
2023-02-06T16:47:18.359Z,5.47
2023-02-06T16:52:49.027Z,5.30
2023-02-06T16:58:17.964Z,4.23
2023-02-06T17:03:39.713Z,5.60
2023-02-06T17:09:06.449Z,5.27
2023-02-06T17:14:28.150Z,5.57
2023-02-06T17:19:51.754Z,5.27
2023-02-06T17:25:13.728Z,5.73
2023-02-06T17:30:37.120Z,5.00
2023-02-06T17:35:59.231Z,4.23
2023-02-06T17:41:20.956Z,5.47
2023-02-06T17:46:42.689Z,6.70
2023-02-06T17:52:04.675Z,6.77
2023-02-06T17:57:26.534Z,5.90
2023-02-06T18:02:49.377Z,3.80
2023-02-06T18:08:11.710Z,5.70
2023-02-06T18:13:33.773Z,3.70
2023-02-06T18:18:55.619Z,3.83
2023-02-06T18:24:17.446Z,6.03
2023-02-06T18:29:49.378Z,7.23
2023-02-06T18:35:12.019Z,4.37
2023-02-06T18:40:33.718Z,4.77
2023-02-06T18:45:55.632Z,3.97
2023-02-06T18:51:17.383Z,5.30
2023-02-06T18:56:39.245Z,4.87
2023-02-06T19:02:01.439Z,7.67
2023-02-06T19:07:23.212Z,10.23
2023-02-06T19:12:45.762Z,8.50
2023-02-06T19:18:10.320Z,8.10
2023-02-06T19:23:34.699Z,7.57
2023-02-06T19:28:57.496Z,9.73
2023-02-06T19:34:19.306Z,8.33
2023-02-06T19:39:43.085Z,8.23
2023-02-06T19:45:06.829Z,11.30
2023-02-06T19:50:28.739Z,8.07
2023-02-06T19:55:50.791Z,5.70
2023-02-06T20:01:14.988Z,6.83
2023-02-06T20:06:37.252Z,7.70
2023-02-06T20:11:59.024Z,7.33
2023-02-06T20:17:21.598Z,7.50
2023-02-06T20:22:43.369Z,7.87
2023-02-06T20:28:05.266Z,8.13
2023-02-06T20:33:27.497Z,10.37
2023-02-06T20:38:54.473Z,8.53
2023-02-06T20:44:17.583Z,11.90
2023-02-06T20:49:39.429Z,10.57
2023-02-06T20:55:01.382Z,6.87
2023-02-06T21:00:23.176Z,10.30
2023-02-06T21:05:45.531Z,9.60
2023-02-06T21:11:08.154Z,8.70
2023-02-06T21:16:31.123Z,8.77
2023-02-06T21:21:52.937Z,8.23
2023-02-06T21:27:14.687Z,9.23
2023-02-06T21:32:36.390Z,10.17
2023-02-06T21:37:58.235Z,6.90
2023-02-06T21:43:20.235Z,7.70
2023-02-06T21:48:42.034Z,9.30
2023-02-06T21:54:04.104Z,7.20
2023-02-06T21:59:25.839Z,6.37
2023-02-06T22:04:47.520Z,6.53
2023-02-06T22:10:09.817Z,7.60
2023-02-06T22:15:32.480Z,7.13
2023-02-06T22:21:07.121Z,10.50
2023-02-06T22:26:30.180Z,6.53
2023-02-06T22:31:51.861Z,8.43
2023-02-06T22:37:13.558Z,8.60
2023-02-06T22:42:35.258Z,7.40
2023-02-06T22:47:56.941Z,11.83
2023-02-06T22:53:29.186Z,9.10
2023-02-06T22:58:51.102Z,9.33
2023-02-06T23:04:19.301Z,8.87
2023-02-06T23:09:41.083Z,8.87
2023-02-06T23:15:02.886Z,10.10
2023-02-06T23:20:24.578Z,18.13
2023-02-06T23:25:46.477Z,8.77
2023-02-06T23:31:09.602Z,8.60
2023-02-06T23:36:31.352Z,10.43
2023-02-06T23:41:53.100Z,9.80
2023-02-06T23:47:14.797Z,9.27
2023-02-06T23:52:36.501Z,8.43
2023-02-06T23:57:58.170Z,8.17
